Terminal Aerodrome Forecast
Issued by NWS

Home | Current Version | Previous Version | Text Only | Print | Product List | Glossary On
Versions: 1 2 3 4 5 6 7 8 9 10 11 12 13 14 15 16 17 18 19 20 21 22 23 24 25 26 27 28
000
FTUS43 KLOT 221513 AAA
TAFORD
TAF AMD
KORD 221513Z 2215/2318 05010KT P6SM SCT025 BKN120 OVC200
     FM221800 07013KT P6SM SCT015 BKN025 OVC050
     FM230300 12012KT P6SM VCSH SCT008 OVC015
     FM230700 14008KT 4SM -RA BR SCT004 OVC008
     FM231400 21009KT 5SM -RA BR OVC008
     FM231700 26012G18KT P6SM BKN012=

USA.gov is the U.S. government's official web portal to all federal, state and local government web resources and services.